createdAt,value
2022-12-05T00:01:15.390Z,49.70
2022-12-05T00:03:43.525Z,47.27
2022-12-05T00:06:11.405Z,45.80
2022-12-05T00:08:39.360Z,54.13
2022-12-05T00:11:12.101Z,44.70
2022-12-05T00:13:40.811Z,48.00
2022-12-05T00:16:09.822Z,51.00
2022-12-05T00:18:38.386Z,46.23
2022-12-05T00:21:06.290Z,49.03
2022-12-05T00:23:34.181Z,47.10
2022-12-05T00:26:06.040Z,51.83
2022-12-05T00:28:34.584Z,52.17
2022-12-05T00:31:21.719Z,45.40
2022-12-05T00:33:50.241Z,50.93
2022-12-05T00:36:19.575Z,51.60
2022-12-05T00:38:47.657Z,56.57
2022-12-05T00:41:16.554Z,51.73
2022-12-05T00:43:44.834Z,53.77
2022-12-05T00:46:14.321Z,54.07
2022-12-05T00:48:42.577Z,51.10
2022-12-05T00:51:14.943Z,47.73
2022-12-05T00:53:43.249Z,51.03
2022-12-05T00:56:12.595Z,53.33
2022-12-05T00:58:40.639Z,51.57
2022-12-05T01:01:08.393Z,50.20
2022-12-05T01:03:36.329Z,52.33
2022-12-05T01:06:06.014Z,49.73
2022-12-05T01:08:34.825Z,50.57
2022-12-05T01:11:02.826Z,46.70
2022-12-05T01:13:31.200Z,51.17
2022-12-05T01:15:58.752Z,52.43
2022-12-05T01:18:26.597Z,45.63
2022-12-05T01:20:54.515Z,43.27
2022-12-05T01:23:22.977Z,49.03
2022-12-05T01:25:51.853Z,45.50
2022-12-05T01:28:19.877Z,42.83
2022-12-05T01:30:48.516Z,49.03
2022-12-05T01:33:16.456Z,45.70
2022-12-05T01:35:44.494Z,45.27
2022-12-05T01:38:13.481Z,49.70
2022-12-05T01:40:41.329Z,43.93
2022-12-05T01:43:15.328Z,47.07
2022-12-05T01:45:44.510Z,42.03
2022-12-05T01:48:15.081Z,47.43
2022-12-05T01:50:42.944Z,44.87
2022-12-05T01:53:10.980Z,43.97
2022-12-05T01:55:39.161Z,47.10
2022-12-05T01:58:08.394Z,47.87
2022-12-05T02:00:36.266Z,45.00
2022-12-05T02:03:06.722Z,42.77
2022-12-05T02:05:35.643Z,43.90
2022-12-05T02:08:05.461Z,46.37
2022-12-05T02:10:36.296Z,49.37
2022-12-05T02:15:46.540Z,43.17
2022-12-05T02:18:21.773Z,53.70
2022-12-05T02:20:49.278Z,51.40
2022-12-05T02:23:35.897Z,49.57
2022-12-05T02:26:03.481Z,46.60
2022-12-05T02:28:45.577Z,37.80
2022-12-05T02:31:31.664Z,37.35
2022-12-05T02:34:16.949Z,41.70
2022-12-05T02:36:47.764Z,45.17
2022-12-05T02:39:18.255Z,47.67
2022-12-05T02:41:48.777Z,45.23
2022-12-05T02:44:23.623Z,46.03
2022-12-05T02:46:52.505Z,49.20
2022-12-05T02:49:23.831Z,47.93
2022-12-05T02:51:54.146Z,44.63
2022-12-05T02:54:24.255Z,40.70
2022-12-05T02:56:53.159Z,56.40
2022-12-05T02:59:23.551Z,46.13
2022-12-05T03:01:51.684Z,45.80
2022-12-05T03:04:20.780Z,52.63
2022-12-05T03:06:51.868Z,41.13
2022-12-05T03:09:22.515Z,43.25
2022-12-05T03:11:51.649Z,47.03
2022-12-05T03:14:31.496Z,46.93
2022-12-05T03:17:02.201Z,44.30
2022-12-05T03:19:50.341Z,50.17
2022-12-05T03:22:23.065Z,47.90
2022-12-05T03:24:50.987Z,43.13
2022-12-05T03:27:24.130Z,44.87
2022-12-05T03:30:04.164Z,50.13
2022-12-05T03:32:31.933Z,49.00
2022-12-05T03:35:08.896Z,52.50
2022-12-05T03:37:53.200Z,50.17
2022-12-05T03:40:24.240Z,59.80
2022-12-05T03:42:55.577Z,45.77
2022-12-05T03:45:26.571Z,54.17
2022-12-05T03:48:00.803Z,47.63
2022-12-05T03:50:29.970Z,46.83
2022-12-05T03:53:21.563Z,49.40
2022-12-05T03:55:55.205Z,50.27
2022-12-05T03:58:26.981Z,37.83
2022-12-05T04:00:55.086Z,45.93
2022-12-05T04:03:39.167Z,49.60
2022-12-05T04:06:16.690Z,52.03
2022-12-05T04:08:48.100Z,50.43
2022-12-05T04:11:19.488Z,50.03
2022-12-05T04:13:55.196Z,50.15
2022-12-05T04:16:47.336Z,39.97
2022-12-05T04:19:20.930Z,25.23
2022-12-05T04:21:51.276Z,23.43
2022-12-05T04:24:51.059Z,46.23
2022-12-05T04:27:31.047Z,48.13
2022-12-05T04:29:58.807Z,50.17
2022-12-05T04:32:28.601Z,53.13
2022-12-05T04:34:57.980Z,50.93
2022-12-05T04:37:26.689Z,53.67
2022-12-05T04:39:57.762Z,58.00
2022-12-05T04:42:27.666Z,56.63
2022-12-05T04:44:56.742Z,49.47
2022-12-05T04:47:27.715Z,54.07
2022-12-05T04:49:56.456Z,56.10
2022-12-05T04:52:25.279Z,150.00
2022-12-05T04:54:58.205Z,89.20
2022-12-05T04:57:29.209Z,61.43
2022-12-05T04:59:57.052Z,67.43
2022-12-05T05:02:37.787Z,57.20
2022-12-05T05:05:13.785Z,50.37
2022-12-05T05:07:45.945Z,77.00
2022-12-05T05:10:16.352Z,71.10
2022-12-05T05:12:44.235Z,76.77
2022-12-05T05:15:11.789Z,55.40
2022-12-05T05:17:39.583Z,73.67
2022-12-05T05:20:27.104Z,64.97
2022-12-05T05:22:55.974Z,60.47
2022-12-05T05:25:23.979Z,75.77
2022-12-05T05:27:52.452Z,156.43
2022-12-05T05:30:20.628Z,67.63
2022-12-05T05:32:48.494Z,62.43
2022-12-05T05:35:16.229Z,90.90
2022-12-05T05:37:44.153Z,94.00
2022-12-05T05:40:14.484Z,90.90
2022-12-05T05:42:43.122Z,72.73
2022-12-05T05:45:11.208Z,92.77
2022-12-05T05:47:39.134Z,87.27
2022-12-05T05:50:07.642Z,73.80
2022-12-05T05:52:36.267Z,68.37
2022-12-05T05:55:05.056Z,86.67
2022-12-05T05:57:33.070Z,68.50
2022-12-05T06:00:00.980Z,77.57
2022-12-05T06:02:32.689Z,110.27
2022-12-05T06:05:00.913Z,65.10
2022-12-05T06:07:29.075Z,71.67
2022-12-05T06:09:57.384Z,98.07
2022-12-05T06:12:25.446Z,74.23
2022-12-05T06:14:53.200Z,86.27
2022-12-05T06:17:21.293Z,56.33
2022-12-05T06:19:48.924Z,81.80
2022-12-05T06:22:16.843Z,141.30
2022-12-05T06:24:44.522Z,63.80
2022-12-05T06:27:12.309Z,108.93
2022-12-05T06:29:39.872Z,123.00
2022-12-05T06:32:09.176Z,81.53
2022-12-05T06:34:37.135Z,69.37
2022-12-05T06:37:05.057Z,95.97
2022-12-05T06:39:32.782Z,92.93
2022-12-05T06:42:01.244Z,74.80
2022-12-05T06:44:29.135Z,66.83
2022-12-05T06:46:56.988Z,64.60
2022-12-05T06:49:36.395Z,82.13
2022-12-05T06:52:05.681Z,51.47
2022-12-05T06:54:33.313Z,100.87
2022-12-05T06:57:01.249Z,334.10
2022-12-05T06:59:28.757Z,86.87
2022-12-05T07:01:56.688Z,42.13
2022-12-05T07:04:24.705Z,81.60
2022-12-05T07:06:53.735Z,55.97
2022-12-05T07:09:43.663Z,58.47
2022-12-05T07:12:11.789Z,62.77
2022-12-05T07:14:47.498Z,63.23
2022-12-05T07:17:16.397Z,97.03
2022-12-05T07:19:44.063Z,79.17
2022-12-05T07:22:15.702Z,80.07
2022-12-05T07:27:11.805Z,92.93
2022-12-05T07:29:39.343Z,116.60
2022-12-05T07:32:07.480Z,127.83
2022-12-05T07:34:35.131Z,90.67
2022-12-05T07:37:02.979Z,96.73
2022-12-05T07:39:30.735Z,87.97
2022-12-05T07:41:58.501Z,74.00
2022-12-05T07:44:26.719Z,81.83
2022-12-05T07:46:54.524Z,88.63
2022-12-05T07:49:23.557Z,66.87
2022-12-05T07:51:53.151Z,61.83
2022-12-05T07:54:20.628Z,70.80
2022-12-05T07:56:49.333Z,96.83
2022-12-05T07:59:17.143Z,59.23
2022-12-05T08:01:45.087Z,59.57
2022-12-05T08:04:15.503Z,59.83
2022-12-05T08:06:44.229Z,71.97
2022-12-05T08:09:11.886Z,57.80
2022-12-05T08:11:39.756Z,88.93
2022-12-05T08:14:07.502Z,58.33
2022-12-05T08:16:35.446Z,64.87
2022-12-05T08:19:04.260Z,57.60
2022-12-05T08:21:32.527Z,66.63
2022-12-05T08:24:00.162Z,69.67
2022-12-05T08:26:29.572Z,59.30
2022-12-05T08:28:59.539Z,66.13
2022-12-05T08:31:30.145Z,70.50
2022-12-05T08:33:59.619Z,71.93
2022-12-05T08:36:29.309Z,62.80
2022-12-05T08:38:57.662Z,63.13
2022-12-05T08:41:29.952Z,64.97
2022-12-05T08:46:26.260Z,62.73
2022-12-05T08:48:53.871Z,56.87
2022-12-05T08:51:21.925Z,60.20
2022-12-05T08:53:49.507Z,47.93
2022-12-05T08:56:18.921Z,44.78
2022-12-05T08:58:49.736Z,47.28
2022-12-05T09:01:19.719Z,46.13
2022-12-05T09:03:48.277Z,54.10
2022-12-05T09:06:16.332Z,61.45
2022-12-05T09:08:44.504Z,56.05
2022-12-05T09:11:19.972Z,51.45
2022-12-05T09:13:48.313Z,62.25
2022-12-05T09:16:18.056Z,59.95
2022-12-05T09:18:46.091Z,59.17
2022-12-05T09:21:15.535Z,60.28
2022-12-05T09:23:43.437Z,58.47
2022-12-05T09:26:13.349Z,63.83
2022-12-05T09:28:41.762Z,66.03
2022-12-05T09:31:10.993Z,70.38
2022-12-05T09:33:38.764Z,72.25
2022-12-05T09:36:07.614Z,65.10
2022-12-05T09:38:35.994Z,56.08
2022-12-05T09:41:06.721Z,60.50
2022-12-05T09:43:55.871Z,57.58
2022-12-05T09:46:35.759Z,64.70
2022-12-05T09:49:05.073Z,56.42
2022-12-05T09:51:33.210Z,58.10
2022-12-05T09:54:00.741Z,57.35
2022-12-05T09:56:30.225Z,59.15
2022-12-05T09:59:00.702Z,73.90
2022-12-05T10:01:28.923Z,99.85
2022-12-05T10:04:05.483Z,98.45
2022-12-05T10:06:38.213Z,67.05
2022-12-05T10:09:15.519Z,76.50
2022-12-05T10:12:01.781Z,67.57
2022-12-05T10:14:32.126Z,63.83
2022-12-05T10:17:32.566Z,65.40
2022-12-05T10:20:01.503Z,60.78
2022-12-05T10:22:40.133Z,68.72
2022-12-05T10:25:08.711Z,67.70
2022-12-05T10:27:43.500Z,84.78
2022-12-05T10:30:16.142Z,81.38
2022-12-05T10:32:50.468Z,77.35
2022-12-05T10:35:19.905Z,63.95
2022-12-05T10:37:49.846Z,62.33
2022-12-05T10:40:18.751Z,66.85
2022-12-05T10:42:46.911Z,70.47
2022-12-05T10:45:16.669Z,54.35
2022-12-05T10:47:44.790Z,54.47
2022-12-05T10:50:24.090Z,54.05
2022-12-05T10:52:54.121Z,104.38
2022-12-05T10:55:22.658Z,109.10
2022-12-05T10:57:52.151Z,92.38
2022-12-05T11:00:25.400Z,149.73
2022-12-05T11:02:53.435Z,199.18
2022-12-05T11:05:34.725Z,64.38
2022-12-05T11:08:02.589Z,59.95
2022-12-05T11:10:34.760Z,60.17
2022-12-05T11:13:14.492Z,68.20
2022-12-05T11:15:49.391Z,69.03
2022-12-05T11:18:26.404Z,59.22
2022-12-05T11:20:54.962Z,66.60
2022-12-05T11:23:30.680Z,74.15
2022-12-05T11:25:59.402Z,103.93
2022-12-05T11:28:32.430Z,62.55
2022-12-05T11:31:01.787Z,69.63
2022-12-05T11:33:30.719Z,92.30
2022-12-05T11:36:20.281Z,85.30
2022-12-05T11:38:48.421Z,102.82
2022-12-05T11:41:27.920Z,75.13
2022-12-05T11:44:11.009Z,83.97
2022-12-05T11:46:47.765Z,74.25
2022-12-05T11:49:34.285Z,64.30
2022-12-05T11:52:29.199Z,75.50
2022-12-05T11:55:04.843Z,66.95
2022-12-05T11:57:46.115Z,89.55
2022-12-05T12:00:33.033Z,100.30
2022-12-05T12:03:00.569Z,93.00
2022-12-05T12:05:36.591Z,87.47
2022-12-05T12:08:30.456Z,100.28
2022-12-05T12:10:59.605Z,100.82
2022-12-05T12:13:36.367Z,81.03
2022-12-05T12:16:14.301Z,65.65
2022-12-05T12:19:00.509Z,59.63
2022-12-05T12:21:38.632Z,60.72
2022-12-05T12:24:12.494Z,47.58
2022-12-05T12:26:57.299Z,51.35
2022-12-05T12:29:44.995Z,50.58
2022-12-05T12:32:12.964Z,60.40
2022-12-05T12:34:59.634Z,64.13
2022-12-05T12:37:27.689Z,90.40
2022-12-05T12:40:05.626Z,64.95
2022-12-05T12:42:52.105Z,60.42
2022-12-05T12:45:29.010Z,92.28
2022-12-05T12:47:58.206Z,72.13
2022-12-05T12:50:31.749Z,66.60
2022-12-05T12:53:20.414Z,67.90
2022-12-05T12:56:00.669Z,64.40
2022-12-05T12:58:32.684Z,61.25
2022-12-05T13:01:12.762Z,56.10
2022-12-05T13:03:49.903Z,62.95
2022-12-05T13:06:25.585Z,72.65
2022-12-05T13:08:58.871Z,66.32
2022-12-05T13:11:28.538Z,67.25
2022-12-05T13:13:59.366Z,61.38
2022-12-05T13:16:29.718Z,105.55
2022-12-05T13:18:58.181Z,76.85
2022-12-05T13:21:26.642Z,70.68
2022-12-05T13:23:56.129Z,228.20
2022-12-05T13:26:24.357Z,104.95
2022-12-05T13:28:57.599Z,72.90
2022-12-05T13:31:37.213Z,143.60
2022-12-05T13:34:05.300Z,62.33
2022-12-05T13:37:01.017Z,258.60
2022-12-05T13:39:47.465Z,399.00
2022-12-05T13:42:22.763Z,87.18
2022-12-05T13:44:52.967Z,252.35
2022-12-05T13:47:32.499Z,122.82
2022-12-05T13:50:15.154Z,68.80
2022-12-05T13:52:50.308Z,58.55
2022-12-05T13:55:20.996Z,71.80
2022-12-05T13:57:50.416Z,131.13
2022-12-05T14:00:18.362Z,89.95
2022-12-05T14:02:46.521Z,89.72
2022-12-05T14:05:17.362Z,85.45
2022-12-05T14:07:48.891Z,90.60
2022-12-05T14:10:21.031Z,95.63
2022-12-05T14:12:51.846Z,88.00
2022-12-05T14:15:38.867Z,100.43
2022-12-05T14:18:25.179Z,107.97
2022-12-05T14:21:02.548Z,102.05
2022-12-05T14:23:40.486Z,100.50
2022-12-05T14:26:32.643Z,102.13
2022-12-05T14:29:01.347Z,110.35
2022-12-05T14:31:38.274Z,125.35
2022-12-05T14:34:11.739Z,119.88
2022-12-05T14:36:40.873Z,119.07
2022-12-05T14:39:21.758Z,112.10
2022-12-05T14:41:56.471Z,120.63
2022-12-05T14:44:28.860Z,125.97
2022-12-05T14:46:58.785Z,120.00
2022-12-05T14:49:48.433Z,110.25
2022-12-05T14:52:38.663Z,113.57
2022-12-05T14:55:12.083Z,124.35
2022-12-05T14:57:46.846Z,126.22
2022-12-05T15:00:22.826Z,143.45
2022-12-05T15:02:52.998Z,134.32
2022-12-05T15:05:21.152Z,112.18
2022-12-05T15:07:49.689Z,123.93
2022-12-05T15:10:21.614Z,108.97
2022-12-05T15:12:50.478Z,121.72
2022-12-05T15:15:27.423Z,118.65
2022-12-05T15:18:00.847Z,118.35
2022-12-05T15:20:42.532Z,119.45
2022-12-05T15:23:29.277Z,121.68
2022-12-05T15:25:58.020Z,118.00
2022-12-05T15:28:32.041Z,135.98
2022-12-05T15:30:59.898Z,123.25
2022-12-05T15:33:28.661Z,160.18
2022-12-05T15:35:56.715Z,128.32
2022-12-05T15:38:28.004Z,129.45
2022-12-05T15:40:55.712Z,146.35
2022-12-05T15:43:31.995Z,141.75
2022-12-05T15:46:20.797Z,133.50
2022-12-05T15:48:49.367Z,181.02
2022-12-05T15:51:17.527Z,196.13
2022-12-05T15:53:47.060Z,172.88
2022-12-05T15:56:18.950Z,147.93
2022-12-05T15:59:07.178Z,145.52
2022-12-05T16:01:39.556Z,170.77
2022-12-05T16:04:10.659Z,205.15
2022-12-05T16:06:40.917Z,173.75
2022-12-05T16:09:11.721Z,158.02
2022-12-05T16:11:40.072Z,157.73
2022-12-05T16:14:08.497Z,179.60
2022-12-05T16:16:37.790Z,172.50
2022-12-05T16:19:15.592Z,130.32
2022-12-05T16:21:47.807Z,152.93
2022-12-05T16:24:20.598Z,154.20
2022-12-05T16:26:59.108Z,166.85
2022-12-05T16:29:31.028Z,179.18
2022-12-05T16:31:59.852Z,315.10
2022-12-05T16:34:29.631Z,272.92
2022-12-05T16:36:58.026Z,231.23
2022-12-05T16:39:26.697Z,260.88
2022-12-05T16:41:54.739Z,180.40
2022-12-05T16:44:28.638Z,159.85
2022-12-05T16:46:56.832Z,178.70
2022-12-05T16:49:30.662Z,185.85
2022-12-05T16:52:14.324Z,198.73
2022-12-05T16:54:42.887Z,210.10
2022-12-05T16:57:12.942Z,224.82
2022-12-05T16:59:42.995Z,217.05
2022-12-05T17:02:15.235Z,251.80
2022-12-05T17:04:43.476Z,226.50
2022-12-05T17:07:12.252Z,211.27
2022-12-05T17:09:40.075Z,169.63
2022-12-05T17:12:11.858Z,194.15
2022-12-05T17:14:39.738Z,223.55
2022-12-05T17:17:13.431Z,206.30
2022-12-05T17:19:41.388Z,221.45
2022-12-05T17:22:08.987Z,263.25
2022-12-05T17:24:37.040Z,228.70
2022-12-05T17:27:06.886Z,229.98
2022-12-05T17:29:35.972Z,233.82
2022-12-05T17:32:04.056Z,209.82
2022-12-05T17:34:31.957Z,234.50
2022-12-05T17:37:00.214Z,256.05
2022-12-05T17:39:28.802Z,216.15
2022-12-05T17:41:56.901Z,216.65
2022-12-05T17:44:24.849Z,204.43
2022-12-05T17:46:52.542Z,219.50
2022-12-05T17:49:20.520Z,217.30
2022-12-05T17:52:20.149Z,219.55
2022-12-05T17:54:36.420Z,209.73
2022-12-05T17:57:04.146Z,202.85
2022-12-05T17:59:32.009Z,186.77
2022-12-05T18:01:59.625Z,180.73
2022-12-05T18:04:27.519Z,183.18
2022-12-05T18:06:55.096Z,212.27
2022-12-05T18:09:24.034Z,207.40
2022-12-05T18:11:51.651Z,199.73
2022-12-05T18:14:19.536Z,166.05
2022-12-05T18:16:47.165Z,237.68
2022-12-05T18:19:15.695Z,213.10
2022-12-05T18:21:43.270Z,185.35
2022-12-05T18:24:11.299Z,172.77
2022-12-05T18:26:38.997Z,143.40
2022-12-05T18:29:06.934Z,135.60
2022-12-05T18:31:35.220Z,142.77
2022-12-05T18:34:03.098Z,108.32
2022-12-05T18:36:30.762Z,106.30
2022-12-05T18:38:59.217Z,104.90
2022-12-05T18:41:27.337Z,98.85
2022-12-05T18:43:55.422Z,110.78
2022-12-05T18:46:23.455Z,100.20
2022-12-05T18:48:51.517Z,97.85
2022-12-05T18:51:23.779Z,121.90
2022-12-05T18:53:52.987Z,119.45
2022-12-05T18:56:24.245Z,180.75
2022-12-05T18:59:03.009Z,120.45
2022-12-05T19:01:31.807Z,226.02
2022-12-05T19:04:00.619Z,152.48
2022-12-05T19:06:29.910Z,131.25
2022-12-05T19:09:00.066Z,130.52
2022-12-05T19:11:28.471Z,134.02
2022-12-05T19:14:00.887Z,139.20
2022-12-05T19:16:29.034Z,144.30
2022-12-05T19:18:58.133Z,143.07
2022-12-05T19:21:26.678Z,136.13
2022-12-05T19:23:55.089Z,135.93
2022-12-05T19:26:22.846Z,144.07
2022-12-05T19:28:50.951Z,149.38
2022-12-05T19:31:20.090Z,149.93
2022-12-05T19:33:48.910Z,141.57
2022-12-05T19:36:18.301Z,142.57
2022-12-05T19:38:47.067Z,130.93
2022-12-05T19:41:15.834Z,134.20
2022-12-05T19:43:44.845Z,114.40
2022-12-05T19:46:14.206Z,120.53
2022-12-05T19:48:42.677Z,95.20
2022-12-05T19:51:10.400Z,88.75
2022-12-05T19:53:41.141Z,86.28
2022-12-05T19:56:20.148Z,111.55
2022-12-05T19:58:48.885Z,192.30
2022-12-05T20:01:18.023Z,119.65
2022-12-05T20:03:50.136Z,119.68
2022-12-05T20:06:18.614Z,116.85
2022-12-05T20:08:47.291Z,103.20
2022-12-05T20:11:19.279Z,100.10
2022-12-05T20:13:48.152Z,94.85
2022-12-05T20:16:18.676Z,97.32
2022-12-05T20:18:46.968Z,97.50
2022-12-05T20:21:15.449Z,105.63
2022-12-05T20:23:43.380Z,90.18
2022-12-05T20:26:12.594Z,97.65
2022-12-05T20:28:40.481Z,100.60
2022-12-05T20:31:09.072Z,90.50
2022-12-05T20:33:37.273Z,134.68
2022-12-05T20:36:06.421Z,105.00
2022-12-05T20:38:34.386Z,106.18
2022-12-05T20:41:06.492Z,97.50
2022-12-05T20:43:35.094Z,125.30
2022-12-05T20:46:06.617Z,141.77
2022-12-05T20:48:35.126Z,125.63
2022-12-05T20:51:22.363Z,100.50
2022-12-05T20:53:50.313Z,116.95
2022-12-05T20:56:18.952Z,85.65
2022-12-05T20:58:47.901Z,89.63
2022-12-05T21:01:16.477Z,114.78
2022-12-05T21:03:45.411Z,194.07
2022-12-05T21:06:14.378Z,144.35
2022-12-05T21:08:42.662Z,133.70
2022-12-05T21:11:10.769Z,152.25
2022-12-05T21:13:38.996Z,123.38
2022-12-05T21:16:08.758Z,95.28
2022-12-05T21:18:36.956Z,102.43
2022-12-05T21:21:06.168Z,99.20
2022-12-05T21:23:34.793Z,138.35
2022-12-05T21:26:03.846Z,91.05
2022-12-05T21:28:32.108Z,89.00
2022-12-05T21:31:07.261Z,94.72
2022-12-05T21:33:35.682Z,87.20
2022-12-05T21:36:03.321Z,93.55
2022-12-05T21:38:31.364Z,87.28
2022-12-05T21:40:58.958Z,101.28
2022-12-05T21:43:26.784Z,127.95
2022-12-05T21:45:55.042Z,132.63
2022-12-05T21:48:23.783Z,159.35
2022-12-05T21:50:51.437Z,154.40
2022-12-05T21:53:19.356Z,148.18
2022-12-05T21:55:47.270Z,143.63
2022-12-05T21:58:15.413Z,144.23
2022-12-05T22:00:43.232Z,150.38
2022-12-05T22:03:15.188Z,121.28
2022-12-05T22:05:49.611Z,136.98
2022-12-05T22:08:17.541Z,129.23
2022-12-05T22:10:45.422Z,164.57
2022-12-05T22:13:13.298Z,110.55
2022-12-05T22:15:40.880Z,123.97
2022-12-05T22:18:10.958Z,107.18
2022-12-05T22:20:38.686Z,110.40
2022-12-05T22:23:06.435Z,110.30
2022-12-05T22:25:34.165Z,116.63
2022-12-05T22:28:01.958Z,160.63
2022-12-05T22:30:29.733Z,139.65
2022-12-05T22:32:57.510Z,142.25
2022-12-05T22:35:25.066Z,165.73
2022-12-05T22:37:54.435Z,141.20
2022-12-05T22:40:21.979Z,149.20
2022-12-05T22:42:49.747Z,133.23
2022-12-05T22:45:17.375Z,169.32
2022-12-05T22:47:46.689Z,192.07
2022-12-05T22:50:14.215Z,158.98
2022-12-05T22:52:42.748Z,144.32
2022-12-05T22:55:10.236Z,151.70
2022-12-05T22:57:38.152Z,136.07
2022-12-05T23:00:06.612Z,123.93
2022-12-05T23:02:34.624Z,110.47
2022-12-05T23:05:02.266Z,111.18
2022-12-05T23:07:30.165Z,111.43
2022-12-05T23:09:58.137Z,106.03
2022-12-05T23:12:27.347Z,127.72
2022-12-05T23:14:54.848Z,133.43
2022-12-05T23:17:22.698Z,144.60
2022-12-05T23:19:50.222Z,118.40
2022-12-05T23:22:18.205Z,126.32
2022-12-05T23:24:45.750Z,115.75
2022-12-05T23:27:13.585Z,130.52
2022-12-05T23:29:42.516Z,139.13
2022-12-05T23:32:10.346Z,126.60
2022-12-05T23:34:37.871Z,114.28
2022-12-05T23:37:05.820Z,101.30
2022-12-05T23:39:33.377Z,101.68
2022-12-05T23:42:01.265Z,100.30
2022-12-05T23:44:28.788Z,108.00
2022-12-05T23:46:56.668Z,102.45
2022-12-05T23:49:24.274Z,115.72
2022-12-05T23:51:52.378Z,124.50
2022-12-05T23:54:19.956Z,122.50
2022-12-05T23:56:47.745Z,114.68
2022-12-05T23:59:15.368Z,126.45
